createdAt,value
2019-04-29T00:04:08.711Z,1.50
2019-04-29T00:09:18.936Z,1.10
2019-04-29T00:14:31.977Z,1.27
2019-04-29T00:20:00.715Z,0.90
2019-04-29T00:25:08.656Z,0.90
2019-04-29T00:30:21.760Z,1.27
2019-04-29T00:35:30.481Z,1.30
2019-04-29T00:41:14.516Z,1.33
2019-04-29T00:46:22.981Z,1.27
2019-04-29T00:51:31.749Z,1.50
2019-04-29T00:56:40.110Z,1.20
2019-04-29T01:01:50.010Z,1.53
2019-04-29T01:06:58.309Z,1.60
2019-04-29T01:12:08.583Z,1.30
2019-04-29T01:17:15.975Z,1.20
2019-04-29T01:22:23.397Z,1.30
2019-04-29T01:27:36.883Z,1.20
2019-04-29T01:32:43.757Z,1.30
2019-04-29T01:37:55.815Z,1.33
2019-04-29T01:43:04.049Z,1.37
2019-04-29T01:48:13.281Z,1.50
2019-04-29T01:53:22.176Z,1.17
2019-04-29T01:58:29.375Z,1.27
2019-04-29T02:03:36.525Z,1.13
2019-04-29T02:08:50.639Z,1.20
2019-04-29T02:13:58.294Z,0.90
2019-04-29T02:19:06.785Z,1.10
2019-04-29T02:24:18.710Z,1.10
2019-04-29T02:29:27.036Z,1.40
2019-04-29T02:34:33.949Z,1.20
2019-04-29T02:39:49.107Z,0.93
2019-04-29T02:44:55.660Z,1.40
2019-04-29T02:50:02.610Z,1.40
2019-04-29T02:55:11.918Z,1.30
2019-04-29T03:00:53.378Z,1.20
2019-04-29T03:06:01.389Z,1.10
2019-04-29T03:11:10.890Z,1.20
2019-04-29T03:16:21.707Z,1.67
2019-04-29T03:21:37.076Z,1.10
2019-04-29T03:26:45.701Z,1.37
2019-04-29T03:31:56.249Z,1.53
2019-04-29T03:37:03.652Z,1.30
2019-04-29T03:42:12.088Z,1.60
2019-04-29T03:47:19.486Z,1.50
2019-04-29T03:52:27.788Z,1.40
2019-04-29T03:57:37.421Z,1.67
2019-04-29T04:02:52.274Z,2.20
2019-04-29T04:08:09.544Z,6.37
2019-04-29T04:13:16.484Z,4.60
2019-04-29T04:18:26.549Z,2.57
2019-04-29T04:23:34.831Z,1.80
2019-04-29T04:28:41.785Z,1.90
2019-04-29T04:33:50.048Z,2.00
2019-04-29T04:38:59.758Z,1.70
2019-04-29T04:44:12.388Z,1.67
2019-04-29T04:49:21.196Z,1.80
2019-04-29T04:54:31.356Z,1.50
2019-04-29T04:59:38.479Z,1.57
2019-04-29T05:04:49.788Z,1.60
2019-04-29T05:09:55.641Z,1.57
2019-04-29T05:15:06.842Z,1.80
2019-04-29T05:20:14.318Z,1.90
2019-04-29T05:25:21.858Z,2.10
2019-04-29T05:30:28.890Z,2.00
2019-04-29T05:36:11.415Z,1.73
2019-04-29T05:41:30.235Z,1.63
2019-04-29T05:47:05.656Z,2.40
2019-04-29T05:52:30.231Z,1.40
2019-04-29T05:57:37.279Z,1.67
2019-04-29T06:02:46.023Z,2.23
2019-04-29T06:08:01.006Z,1.70
2019-04-29T06:13:09.131Z,2.20
2019-04-29T06:18:17.733Z,2.17
2019-04-29T06:23:27.849Z,2.40
2019-04-29T06:28:37.982Z,2.20
2019-04-29T06:33:50.500Z,2.00
2019-04-29T06:39:00.749Z,2.30
2019-04-29T06:44:16.139Z,2.10
2019-04-29T06:49:18.598Z,2.33
2019-04-29T06:54:26.983Z,2.17
2019-04-29T06:59:36.183Z,2.30
2019-04-29T07:04:44.256Z,1.63
2019-04-29T07:09:56.689Z,2.50
2019-04-29T07:15:07.657Z,2.60
2019-04-29T07:20:14.590Z,3.03
2019-04-29T07:25:24.753Z,3.40
2019-04-29T07:30:30.945Z,3.17
2019-04-29T07:35:38.248Z,3.77
2019-04-29T07:40:44.650Z,3.40
2019-04-29T07:46:10.330Z,3.50
2019-04-29T07:51:15.735Z,4.07
2019-04-29T07:56:21.406Z,2.73
2019-04-29T08:01:26.896Z,2.83
2019-04-29T08:06:33.569Z,2.98
2019-04-29T08:11:40.327Z,2.75
2019-04-29T08:16:45.765Z,2.98
2019-04-29T08:21:51.670Z,3.25
2019-04-29T08:26:57.301Z,2.40
2019-04-29T08:32:02.785Z,2.67
2019-04-29T08:37:08.251Z,2.77
2019-04-29T08:42:17.091Z,2.80
2019-04-29T08:47:30.524Z,2.53
2019-04-29T08:52:33.809Z,2.25
2019-04-29T08:57:41.926Z,2.27
2019-04-29T09:02:49.339Z,2.23
2019-04-29T09:07:57.236Z,2.30
2019-04-29T09:13:05.002Z,2.17
2019-04-29T09:18:11.291Z,2.33
2019-04-29T09:23:20.977Z,1.90
2019-04-29T09:28:28.270Z,2.10
2019-04-29T09:33:35.971Z,1.57
2019-04-29T09:38:42.590Z,2.20
2019-04-29T09:44:17.437Z,1.37
2019-04-29T09:49:22.924Z,2.17
2019-04-29T09:54:31.108Z,2.70
2019-04-29T09:59:45.974Z,2.35
2019-04-29T10:04:59.509Z,2.30
2019-04-29T10:10:08.029Z,0.95
2019-04-29T10:15:15.131Z,1.30
2019-04-29T10:20:26.951Z,1.10
2019-04-29T10:25:33.445Z,2.83
2019-04-29T10:30:39.016Z,2.00
2019-04-29T10:35:46.215Z,1.77
2019-04-29T10:41:11.875Z,3.03
2019-04-29T10:46:36.696Z,3.23
2019-04-29T10:51:42.349Z,3.37
2019-04-29T10:56:49.792Z,2.87
2019-04-29T11:02:49.505Z,3.20
2019-04-29T11:08:02.072Z,3.12
2019-04-29T11:13:07.053Z,3.22
2019-04-29T11:18:13.797Z,3.42
2019-04-29T11:23:45.478Z,3.17
2019-04-29T11:28:54.778Z,3.90
2019-04-29T11:34:17.936Z,3.15
2019-04-29T11:39:24.709Z,3.33
2019-04-29T11:44:31.956Z,2.95
2019-04-29T11:49:47.966Z,2.70
2019-04-29T11:54:53.605Z,2.72
2019-04-29T12:00:25.315Z,3.02
2019-04-29T12:05:49.702Z,2.90
2019-04-29T12:11:06.460Z,2.87
2019-04-29T12:16:26.334Z,2.87
2019-04-29T12:21:36.106Z,3.03
2019-04-29T12:26:44.611Z,3.47
2019-04-29T12:32:20.652Z,3.70
2019-04-29T12:37:41.965Z,3.27
2019-04-29T12:43:06.789Z,4.50
2019-04-29T12:48:24.418Z,4.00
2019-04-29T12:53:23.004Z,3.33
2019-04-29T12:58:29.975Z,3.40
2019-04-29T13:03:44.426Z,3.35
2019-04-29T13:08:54.298Z,3.35
2019-04-29T13:14:01.777Z,3.37
2019-04-29T13:19:20.304Z,3.08
2019-04-29T13:24:25.783Z,3.08
2019-04-29T13:29:32.069Z,3.62
2019-04-29T13:34:41.967Z,3.50
2019-04-29T13:39:48.448Z,3.20
2019-04-29T13:45:06.091Z,2.70
2019-04-29T13:50:23.554Z,2.92
2019-04-29T13:55:48.047Z,2.98
2019-04-29T14:00:39.456Z,3.25
2019-04-29T14:05:45.382Z,3.77
2019-04-29T14:10:52.546Z,4.08
2019-04-29T14:15:58.794Z,4.05
2019-04-29T14:21:05.764Z,4.25
2019-04-29T14:26:11.921Z,3.67
2019-04-29T14:31:18.659Z,4.05
2019-04-29T14:36:26.369Z,4.03
2019-04-29T14:41:34.233Z,4.15
2019-04-29T14:46:48.710Z,3.77
2019-04-29T14:51:55.391Z,4.15
2019-04-29T14:57:01.964Z,3.90
2019-04-29T15:02:18.877Z,3.25
2019-04-29T15:07:26.253Z,3.70
2019-04-29T15:13:19.257Z,3.08
2019-04-29T15:18:46.157Z,3.17
2019-04-29T15:23:35.759Z,3.35
2019-04-29T15:28:53.169Z,3.70
2019-04-29T15:33:59.203Z,4.60
2019-04-29T15:39:10.970Z,5.30
2019-04-29T15:44:20.331Z,7.05
2019-04-29T15:49:26.593Z,4.97
2019-04-29T15:54:34.549Z,4.75
2019-04-29T15:59:49.087Z,5.00
2019-04-29T16:04:55.348Z,4.78
2019-04-29T16:10:20.531Z,5.10
2019-04-29T16:15:26.070Z,5.10
2019-04-29T16:20:32.845Z,5.40
2019-04-29T16:25:40.810Z,4.40
2019-04-29T16:36:04.779Z,5.00
2019-04-29T16:41:27.365Z,4.57
2019-04-29T16:46:37.623Z,4.42
2019-04-29T16:51:47.975Z,4.20
2019-04-29T16:56:51.853Z,3.35
2019-04-29T17:02:01.044Z,2.50
2019-04-29T17:12:16.778Z,1.90
2019-04-29T17:17:29.222Z,2.27
2019-04-29T17:22:35.577Z,1.45
2019-04-29T17:27:49.898Z,1.40
2019-04-29T17:33:10.481Z,1.50
2019-04-29T17:35:14.558Z,2.00
2019-04-29T17:38:17.095Z,1.45
2019-04-29T17:43:43.017Z,1.50
2019-04-29T17:48:56.153Z,1.50
2019-04-29T17:54:05.352Z,1.73
2019-04-29T17:59:30.843Z,2.85
2019-04-29T18:05:00.090Z,2.20
2019-04-29T18:10:29.367Z,2.20
2019-04-29T18:15:47.155Z,2.20
2019-04-29T18:21:06.414Z,2.10
2019-04-29T18:26:37.020Z,3.00
2019-04-29T18:31:44.983Z,3.17
2019-04-29T18:36:54.638Z,3.20
2019-04-29T18:42:03.274Z,2.67
2019-04-29T18:47:20.048Z,2.80
2019-04-29T18:52:25.928Z,2.93
2019-04-29T18:57:30.928Z,3.17
2019-04-29T19:02:45.464Z,3.13
2019-04-29T19:07:55.267Z,3.07
2019-04-29T19:13:00.046Z,3.13
2019-04-29T19:18:07.628Z,3.50
2019-04-29T19:23:16.103Z,3.87
2019-04-29T19:28:29.429Z,3.70
2019-04-29T19:33:30.728Z,3.43
2019-04-29T19:38:43.303Z,3.37
2019-04-29T19:43:48.404Z,3.57
2019-04-29T19:48:58.212Z,4.17
2019-04-29T19:54:05.388Z,6.30
2019-04-29T19:59:16.079Z,6.83
2019-04-29T20:04:40.195Z,4.07
2019-04-29T20:09:49.226Z,4.75
2019-04-29T20:14:59.746Z,4.13
2019-04-29T20:20:21.972Z,4.62
2019-04-29T20:25:34.135Z,4.83
2019-04-29T20:30:36.442Z,4.73
2019-04-29T20:35:45.337Z,5.00
2019-04-29T20:40:52.366Z,5.00
2019-04-29T20:46:02.261Z,4.57
2019-04-29T20:51:13.105Z,4.27
2019-04-29T20:56:23.618Z,4.70
2019-04-29T21:01:30.940Z,5.30
2019-04-29T21:06:43.869Z,5.33
2019-04-29T21:12:00.133Z,5.53
2019-04-29T21:17:09.537Z,5.87
2019-04-29T21:22:22.316Z,5.83
2019-04-29T21:27:22.575Z,5.27
2019-04-29T21:32:37.143Z,6.13
2019-04-29T21:38:05.587Z,5.13
2019-04-29T21:43:18.233Z,6.63
2019-04-29T21:48:33.128Z,6.23
2019-04-29T21:53:38.826Z,5.77
2019-04-29T21:58:41.026Z,5.63
2019-04-29T22:03:47.740Z,5.80
2019-04-29T22:09:01.085Z,6.97
2019-04-29T22:14:02.930Z,6.70
2019-04-29T22:19:09.919Z,6.40
2019-04-29T22:24:17.179Z,6.17
2019-04-29T22:29:23.952Z,7.10
2019-04-29T22:34:30.798Z,6.80
2019-04-29T22:39:37.950Z,6.77
2019-04-29T22:44:45.707Z,6.17
2019-04-29T22:49:52.442Z,6.60
2019-04-29T22:55:01.586Z,6.33
2019-04-29T23:00:06.207Z,5.93
2019-04-29T23:05:11.675Z,6.53
2019-04-29T23:10:18.139Z,6.37
2019-04-29T23:15:26.042Z,7.10
2019-04-29T23:20:50.577Z,7.67
2019-04-29T23:25:59.901Z,6.57
2019-04-29T23:31:04.918Z,7.07
2019-04-29T23:36:14.207Z,6.55
2019-04-29T23:41:20.788Z,7.00
2019-04-29T23:46:29.695Z,6.97
2019-04-29T23:51:37.811Z,6.27
2019-04-29T23:57:08.938Z,6.70
